Time;durP1;ratioP1;P1;durP2;ratioP2;P2;SDS_P1;SDS_P2;PMS_P1;PMS_P2;Temp;Humidity;BMP_temperature;BMP_pressure;BME280_temperature;BME280_humidity;BME280_pressure;Samples;Min_cycle;Max_cycle;Signal;HPM_P1;HPM_P2
2021/01/16 00:01:36;;;;;;;0.30;0.30;;;;;;;;;;5106126;28;20030;-69
2021/01/16 00:04:02;;;;;;;0.30;0.30;;;;;;;;;;5073384;28;20027;-70
2021/01/16 00:06:30;;;;;;;0.30;0.30;;;;;;;;;;5075335;28;20440;-69
2021/01/16 00:08:56;;;;;;;0.38;0.38;;;;;;;;;;5067779;28;20012;-69
2021/01/16 00:11:22;;;;;;;0.30;0.30;;;;;;;;;;5094467;28;20028;-69
2021/01/16 00:13:47;;;;;;;0.40;0.40;;;;;;;;;;5100264;28;20689;-69
2021/01/16 00:16:12;;;;;;;0.30;0.30;;;;;;;;;;5090673;28;20027;-70
2021/01/16 00:18:37;;;;;;;0.30;0.30;;;;;;;;;;5111444;28;20376;-69
2021/01/16 00:21:03;;;;;;;0.30;0.30;;;;;;;;;;5100470;28;20351;-69
2021/01/16 00:23:28;;;;;;;0.30;0.30;;;;;;;;;;5097197;28;20506;-69
2021/01/16 00:25:54;;;;;;;0.30;0.30;;;;;;;;;;5079345;28;20511;-68
2021/01/16 00:28:20;;;;;;;0.38;0.38;;;;;;;;;;5058805;28;20073;-68
2021/01/16 00:30:46;;;;;;;0.40;0.40;;;;;;;;;;5057828;28;20031;-67
2021/01/16 00:33:21;;;;;;;0.35;0.35;;;;;;;;;;5053520;28;20016;-69
2021/01/16 00:35:46;;;;;;;0.38;0.38;;;;;;;;;;5056117;28;20735;-68
2021/01/16 00:38:12;;;;;;;0.30;0.30;;;;;;;;;;5053974;28;20025;-68
2021/01/16 00:40:37;;;;;;;0.30;0.30;;;;;;;;;;5056190;28;20024;-68
2021/01/16 00:43:06;;;;;;;0.30;0.30;;;;;;;;;;5036950;28;20040;-68
2021/01/16 00:45:31;;;;;;;0.30;0.30;;;;;;;;;;5077166;28;20016;-69
2021/01/16 00:48:00;;;;;;;0.40;0.40;;;;;;;;;;5075089;28;20024;-68
2021/01/16 00:50:25;;;;;;;0.30;0.30;;;;;;;;;;5076584;28;20357;-68
2021/01/16 00:52:55;;;;;;;0.30;0.30;;;;;;;;;;5047985;28;20083;-69
2021/01/16 00:55:20;;;;;;;0.35;0.35;;;;;;;;;;5057000;28;20075;-68
2021/01/16 00:57:45;;;;;;;0.30;0.30;;;;;;;;;;5051077;28;20021;-69
2021/01/16 01:00:10;;;;;;;0.30;0.30;;;;;;;;;;5090394;28;20020;-67
2021/01/16 01:02:40;;;;;;;0.30;0.30;;;;;;;;;;5066999;28;20262;-69
2021/01/16 01:05:05;;;;;;;0.30;0.30;;;;;;;;;;5039476;28;20024;-68
2021/01/16 01:07:30;;;;;;;0.30;0.30;;;;;;;;;;5056984;28;20020;-69
2021/01/16 01:09:56;;;;;;;0.30;0.30;;;;;;;;;;5063307;28;20395;-69
2021/01/16 01:12:21;;;;;;;0.40;0.40;;;;;;;;;;5048406;28;20016;-68
2021/01/16 01:14:47;;;;;;;0.30;0.30;;;;;;;;;;5056404;28;20381;-68
2021/01/16 01:17:15;;;;;;;0.30;0.30;;;;;;;;;;5083867;28;20746;-68
2021/01/16 01:19:41;;;;;;;0.30;0.30;;;;;;;;;;5061391;28;20069;-69
2021/01/16 01:22:07;;;;;;;0.30;0.30;;;;;;;;;;5075919;28;20101;-68
2021/01/16 01:24:32;;;;;;;0.30;0.30;;;;;;;;;;5071278;28;20630;-69
2021/01/16 01:26:57;;;;;;;0.40;0.40;;;;;;;;;;5059590;28;20119;-69
2021/01/16 01:29:22;;;;;;;0.30;0.30;;;;;;;;;;5071540;28;20047;-68
2021/01/16 01:31:47;;;;;;;0.30;0.30;;;;;;;;;;5079283;28;20028;-68
2021/01/16 01:34:13;;;;;;;0.40;0.40;;;;;;;;;;5076115;28;20028;-69
2021/01/16 01:36:38;;;;;;;0.30;0.30;;;;;;;;;;5080234;28;20666;-69
2021/01/16 01:39:04;;;;;;;0.30;0.30;;;;;;;;;;5114300;28;20024;-69
2021/01/16 01:41:29;;;;;;;0.40;0.40;;;;;;;;;;5114467;28;20456;-69
2021/01/16 01:43:54;;;;;;;0.30;0.30;;;;;;;;;;5096686;28;20062;-69
2021/01/16 01:46:19;;;;;;;0.30;0.30;;;;;;;;;;5114792;28;20028;-69
2021/01/16 01:48:44;;;;;;;0.40;0.40;;;;;;;;;;5060984;28;20270;-69
2021/01/16 01:51:10;;;;;;;0.30;0.30;;;;;;;;;;5087631;28;20273;-69
2021/01/16 01:53:35;;;;;;;0.30;0.30;;;;;;;;;;5076052;28;20297;-69
2021/01/16 01:56:00;;;;;;;0.38;0.38;;;;;;;;;;5095839;28;20281;-69
2021/01/16 01:58:26;;;;;;;0.30;0.30;;;;;;;;;;5058919;28;20035;-69
2021/01/16 02:00:52;;;;;;;0.35;0.35;;;;;;;;;;5077274;28;20031;-69
2021/01/16 02:03:17;;;;;;;0.30;0.30;;;;;;;;;;5077408;28;20464;-68
2021/01/16 02:05:42;;;;;;;0.30;0.30;;;;;;;;;;5070084;28;20120;-69
2021/01/16 02:08:08;;;;;;;0.40;0.40;;;;;;;;;;5088195;28;20107;-68
2021/01/16 02:10:33;;;;;;;0.30;0.30;;;;;;;;;;5106088;28;20028;-69
2021/01/16 02:12:58;;;;;;;0.30;0.30;;;;;;;;;;5058477;28;20560;-68
2021/01/16 02:15:36;;;;;;;0.30;0.30;;;;;;;;;;5065927;28;20039;-69
2021/01/16 02:18:20;;;;;;;0.30;0.30;;;;;;;;;;5075589;28;20154;-69
2021/01/16 02:20:45;;;;;;;0.40;0.40;;;;;;;;;;5094205;28;20432;-69
2021/01/16 02:23:29;;;;;;;0.38;0.38;;;;;;;;;;5086417;28;20059;-69
2021/01/16 02:25:54;;;;;;;0.40;0.40;;;;;;;;;;5093125;28;20492;-69
2021/01/16 02:28:23;;;;;;;0.30;0.30;;;;;;;;;;5078738;28;20024;-69
2021/01/16 02:30:48;;;;;;;0.32;0.32;;;;;;;;;;5093567;28;20027;-69
2021/01/16 02:33:15;;;;;;;0.30;0.30;;;;;;;;;;5078421;28;20467;-69
2021/01/16 02:36:01;;;;;;;0.30;0.30;;;;;;;;;;5078079;28;20785;-69
2021/01/16 02:38:45;;;;;;;0.25;0.25;;;;;;;;;;5044145;28;20031;-69
2021/01/16 02:41:19;;;;;;;0.40;0.40;;;;;;;;;;5102883;28;20050;-69
2021/01/16 02:43:44;;;;;;;0.30;0.30;;;;;;;;;;5078477;28;20066;-69
2021/01/16 02:46:22;;;;;;;0.30;0.30;;;;;;;;;;5096148;28;20047;-69
2021/01/16 02:49:04;;;;;;;0.30;0.30;;;;;;;;;;5078612;28;20023;-69
2021/01/16 02:51:48;;;;;;;0.30;0.30;;;;;;;;;;5084638;28;20028;-69
2021/01/16 02:54:14;;;;;;;0.30;0.30;;;;;;;;;;5105876;28;20016;-68
2021/01/16 02:56:39;;;;;;;0.30;0.30;;;;;;;;;;5058605;28;20019;-69
2021/01/16 02:59:04;;;;;;;0.30;0.30;;;;;;;;;;5065809;28;20266;-68
2021/01/16 03:01:30;;;;;;;0.30;0.30;;;;;;;;;;5075282;28;20372;-69
2021/01/16 03:03:55;;;;;;;0.30;0.30;;;;;;;;;;5075580;28;20429;-69
2021/01/16 03:06:20;;;;;;;0.30;0.30;;;;;;;;;;5075155;28;20079;-69
2021/01/16 03:08:46;;;;;;;0.30;0.30;;;;;;;;;;5085691;28;20262;-68
2021/01/16 03:11:11;;;;;;;0.30;0.30;;;;;;;;;;5087741;28;20035;-69
2021/01/16 03:13:36;;;;;;;0.30;0.30;;;;;;;;;;5078951;28;20071;-69
2021/01/16 03:16:03;;;;;;;0.30;0.30;;;;;;;;;;5084946;28;20376;-69
2021/01/16 03:18:29;;;;;;;0.30;0.30;;;;;;;;;;5075054;28;20016;-69
2021/01/16 03:20:54;;;;;;;0.30;0.30;;;;;;;;;;5058296;28;20023;-69
2021/01/16 03:23:19;;;;;;;0.30;0.30;;;;;;;;;;5075524;28;20024;-68
2021/01/16 03:25:44;;;;;;;0.30;0.30;;;;;;;;;;5065110;28;20064;-69
2021/01/16 03:28:09;;;;;;;0.30;0.30;;;;;;;;;;5072438;28;20035;-69
2021/01/16 03:30:35;;;;;;;0.30;0.30;;;;;;;;;;5070973;28;20098;-69
2021/01/16 03:33:00;;;;;;;0.30;0.30;;;;;;;;;;5072304;28;20531;-68
2021/01/16 03:35:25;;;;;;;0.30;0.30;;;;;;;;;;5071918;28;20040;-69
2021/01/16 03:37:51;;;;;;;0.30;0.30;;;;;;;;;;5058238;28;20013;-68
2021/01/16 03:40:16;;;;;;;0.30;0.30;;;;;;;;;;5084464;28;20025;-68
2021/01/16 03:42:42;;;;;;;0.35;0.35;;;;;;;;;;5092494;28;20024;-69
2021/01/16 03:45:11;;;;;;;0.30;0.30;;;;;;;;;;5074007;28;20120;-69
2021/01/16 03:47:37;;;;;;;0.30;0.30;;;;;;;;;;5092035;28;20032;-69
2021/01/16 03:50:05;;;;;;;0.30;0.30;;;;;;;;;;5062427;28;20024;-69
2021/01/16 03:52:31;;;;;;;0.30;0.30;;;;;;;;;;5080193;28;20855;-69
2021/01/16 03:54:57;;;;;;;0.30;0.30;;;;;;;;;;5063236;28;20024;-68
2021/01/16 03:57:24;;;;;;;0.30;0.30;;;;;;;;;;5054318;28;20024;-69
2021/01/16 03:59:50;;;;;;;0.30;0.30;;;;;;;;;;5072012;28;20025;-69
2021/01/16 04:02:17;;;;;;;0.40;0.40;;;;;;;;;;5077571;28;20020;-69
2021/01/16 04:04:46;;;;;;;0.30;0.30;;;;;;;;;;5082338;28;20072;-69
2021/01/16 04:07:11;;;;;;;0.40;0.40;;;;;;;;;;5058084;28;20113;-69
2021/01/16 04:09:36;;;;;;;0.40;0.40;;;;;;;;;;5081101;28;20472;-69
2021/01/16 04:12:02;;;;;;;0.30;0.30;;;;;;;;;;5091578;28;20270;-69
2021/01/16 04:14:27;;;;;;;0.38;0.38;;;;;;;;;;5090267;28;20030;-69
2021/01/16 04:16:53;;;;;;;0.32;0.32;;;;;;;;;;5054989;28;20052;-69
2021/01/16 04:19:18;;;;;;;0.40;0.40;;;;;;;;;;5053928;28;20461;-69
2021/01/16 04:21:44;;;;;;;0.40;0.40;;;;;;;;;;5073105;28;20481;-69
2021/01/16 04:24:10;;;;;;;0.32;0.32;;;;;;;;;;5094717;28;20449;-69
2021/01/16 04:26:35;;;;;;;0.40;0.40;;;;;;;;;;5077399;28;20095;-69
2021/01/16 04:29:00;;;;;;;0.40;0.40;;;;;;;;;;5052532;28;20274;-69
2021/01/16 04:31:25;;;;;;;0.43;0.43;;;;;;;;;;5062669;28;20028;-69
2021/01/16 04:33:50;;;;;;;0.40;0.40;;;;;;;;;;5094860;28;20073;-69
2021/01/16 04:36:16;;;;;;;0.30;0.30;;;;;;;;;;5080022;28;20282;-69
2021/01/16 04:38:41;;;;;;;0.35;0.35;;;;;;;;;;5076598;28;20364;-69
2021/01/16 04:41:10;;;;;;;0.40;0.40;;;;;;;;;;5094934;28;20023;-69
2021/01/16 04:43:35;;;;;;;0.30;0.30;;;;;;;;;;5084910;28;20385;-69
2021/01/16 04:46:04;;;;;;;0.40;0.40;;;;;;;;;;5075624;28;20082;-69
2021/01/16 04:48:31;;;;;;;0.30;0.30;;;;;;;;;;5076605;28;20024;-69
2021/01/16 04:50:57;;;;;;;0.30;0.30;;;;;;;;;;5083658;28;20032;-68
2021/01/16 04:53:22;;;;;;;0.30;0.30;;;;;;;;;;5057482;28;20170;-68
2021/01/16 04:55:47;;;;;;;0.40;0.40;;;;;;;;;;5073251;28;20281;-68
2021/01/16 04:58:12;;;;;;;0.40;0.40;;;;;;;;;;5058377;28;20028;-68
2021/01/16 05:00:39;;;;;;;0.40;0.40;;;;;;;;;;5076850;28;20008;-68
2021/01/16 05:03:05;;;;;;;0.38;0.38;;;;;;;;;;5067945;28;20294;-69
2021/01/16 05:05:31;;;;;;;0.30;0.30;;;;;;;;;;5084405;28;20090;-69
2021/01/16 05:07:56;;;;;;;0.40;0.40;;;;;;;;;;5093898;28;20020;-69
2021/01/16 05:10:21;;;;;;;0.40;0.40;;;;;;;;;;5088861;28;20317;-68
2021/01/16 05:12:52;;;;;;;0.40;0.40;;;;;;;;;;5087535;28;20017;-69
2021/01/16 05:15:21;;;;;;;0.40;0.40;;;;;;;;;;5048529;28;20287;-69
2021/01/16 05:17:55;;;;;;;0.40;0.40;;;;;;;;;;5057278;28;20587;-69
2021/01/16 05:20:21;;;;;;;0.40;0.40;;;;;;;;;;5057123;28;20078;-69
2021/01/16 05:22:46;;;;;;;0.30;0.30;;;;;;;;;;5057572;28;20020;-68
2021/01/16 05:25:12;;;;;;;0.30;0.30;;;;;;;;;;5056828;28;20040;-69
2021/01/16 05:27:37;;;;;;;0.40;0.40;;;;;;;;;;5062008;28;20707;-69
2021/01/16 05:30:06;;;;;;;0.40;0.40;;;;;;;;;;5086467;28;20025;-69
2021/01/16 05:32:31;;;;;;;0.40;0.40;;;;;;;;;;5093595;28;20043;-69
2021/01/16 05:35:13;;;;;;;0.30;0.30;;;;;;;;;;5085888;28;20567;-69
2021/01/16 05:37:38;;;;;;;0.30;0.30;;;;;;;;;;5074252;28;20024;-69
2021/01/16 05:40:04;;;;;;;0.35;0.35;;;;;;;;;;5067003;28;20442;-69
2021/01/16 05:42:29;;;;;;;0.30;0.30;;;;;;;;;;5092393;28;20032;-69
2021/01/16 05:44:55;;;;;;;0.30;0.30;;;;;;;;;;5094524;28;20027;-68
2021/01/16 05:47:20;;;;;;;0.30;0.30;;;;;;;;;;5093384;28;20495;-69
2021/01/16 05:49:46;;;;;;;0.40;0.40;;;;;;;;;;5092575;28;20020;-69
2021/01/16 05:52:11;;;;;;;0.30;0.30;;;;;;;;;;5091894;28;20262;-69
2021/01/16 05:54:36;;;;;;;0.30;0.30;;;;;;;;;;5067190;28;20295;-69
2021/01/16 05:57:01;;;;;;;0.40;0.40;;;;;;;;;;5081621;28;20078;-69
2021/01/16 05:59:30;;;;;;;0.30;0.30;;;;;;;;;;5083914;28;20023;-69
2021/01/16 06:01:55;;;;;;;0.30;0.30;;;;;;;;;;5093086;28;20024;-69
2021/01/16 06:04:21;;;;;;;0.40;0.40;;;;;;;;;;5090379;28;20147;-69
2021/01/16 06:06:46;;;;;;;0.30;0.30;;;;;;;;;;5039852;28;20019;-69
2021/01/16 06:09:18;;;;;;;0.40;0.40;;;;;;;;;;5084176;28;20404;-69
2021/01/16 06:11:44;;;;;;;0.32;0.32;;;;;;;;;;5075787;28;20019;-69
2021/01/16 06:14:09;;;;;;;0.30;0.30;;;;;;;;;;5071262;28;20013;-69
2021/01/16 06:16:45;;;;;;;0.40;0.40;;;;;;;;;;5059466;28;20036;-69
2021/01/16 06:19:10;;;;;;;;;;;;;;;;;;5075610;28;20730;-69
2021/01/16 06:21:35;;;;;;;0.40;0.40;;;;;;;;;;5089093;28;20424;-69
2021/01/16 06:24:01;;;;;;;0.40;0.40;;;;;;;;;;5075701;28;20051;-68
2021/01/16 06:26:26;;;;;;;0.35;0.35;;;;;;;;;;5091309;28;20638;-69
2021/01/16 06:28:54;;;;;;;0.40;0.40;;;;;;;;;;5091429;28;20020;-69
2021/01/16 06:31:26;;;;;;;0.30;0.30;;;;;;;;;;5092589;28;20048;-69
2021/01/16 06:33:55;;;;;;;0.30;0.30;;;;;;;;;;5075536;28;20034;-69
2021/01/16 06:36:20;;;;;;;0.30;0.30;;;;;;;;;;5075395;28;20032;-69
2021/01/16 06:38:46;;;;;;;0.30;0.30;;;;;;;;;;5089782;28;20422;-69
2021/01/16 06:41:12;;;;;;;0.40;0.40;;;;;;;;;;5068954;28;20090;-69
2021/01/16 06:43:38;;;;;;;0.30;0.30;;;;;;;;;;5074666;28;20266;-68
2021/01/16 06:46:06;;;;;;;0.30;0.30;;;;;;;;;;5091096;28;20032;-69
2021/01/16 06:48:36;;;;;;;0.30;0.30;;;;;;;;;;5089838;28;20031;-69
2021/01/16 06:51:02;;;;;;;0.30;0.30;;;;;;;;;;5076524;28;20031;-69
2021/01/16 06:53:29;;;;;;;0.30;0.30;;;;;;;;;;5091392;28;20024;-69
2021/01/16 06:56:15;;;;;;;0.30;0.30;;;;;;;;;;5074889;28;20012;-69
2021/01/16 06:58:43;;;;;;;0.32;0.32;;;;;;;;;;5091396;28;20032;-69
2021/01/16 07:01:09;;;;;;;0.40;0.40;;;;;;;;;;5071691;28;20021;-68
2021/01/16 07:03:37;;;;;;;0.35;0.35;;;;;;;;;;5081968;28;20491;-69
2021/01/16 07:06:03;;;;;;;0.40;0.40;;;;;;;;;;5092427;28;20091;-72
2021/01/16 07:08:28;;;;;;;0.40;0.40;;;;;;;;;;5093016;28;20105;-71
2021/01/16 07:10:53;;;;;;;0.40;0.40;;;;;;;;;;5052474;28;20032;-71
2021/01/16 07:13:19;;;;;;;0.30;0.30;;;;;;;;;;5072525;28;20020;-71
2021/01/16 07:15:45;;;;;;;0.30;0.30;;;;;;;;;;5088022;28;20020;-71
2021/01/16 07:18:10;;;;;;;0.35;0.35;;;;;;;;;;5092597;28;20824;-70
2021/01/16 07:20:38;;;;;;;0.35;0.35;;;;;;;;;;5080046;28;20008;-70
2021/01/16 07:23:03;;;;;;;0.40;0.40;;;;;;;;;;5079373;28;20042;-71
2021/01/16 07:25:29;;;;;;;0.30;0.30;;;;;;;;;;5085202;28;20025;-70
2021/01/16 07:27:54;;;;;;;0.30;0.30;;;;;;;;;;5078922;28;20052;-70
2021/01/16 07:30:20;;;;;;;0.30;0.30;;;;;;;;;;5086188;28;20017;-70
2021/01/16 07:32:46;;;;;;;0.30;0.30;;;;;;;;;;5083121;28;20031;-71
2021/01/16 07:35:12;;;;;;;0.30;0.30;;;;;;;;;;5093021;28;20415;-70
2021/01/16 07:37:39;;;;;;;0.30;0.30;;;;;;;;;;5074856;28;20388;-70
2021/01/16 07:40:04;;;;;;;0.30;0.30;;;;;;;;;;5080978;28;21599;-72
2021/01/16 07:42:30;;;;;;;0.32;0.32;;;;;;;;;;5062761;28;20029;-70
2021/01/16 07:45:08;;;;;;;0.30;0.30;;;;;;;;;;5089171;28;20376;-70
2021/01/16 07:47:40;;;;;;;0.30;0.30;;;;;;;;;;5081258;28;20032;-69
2021/01/16 07:50:09;;;;;;;0.30;0.30;;;;;;;;;;5085373;28;20031;-71
2021/01/16 07:52:34;;;;;;;0.40;0.40;;;;;;;;;;5087140;28;20424;-69
2021/01/16 07:55:03;;;;;;;0.37;0.37;;;;;;;;;;5058541;28;20097;-71
2021/01/16 07:57:29;;;;;;;0.30;0.30;;;;;;;;;;5058408;28;20263;-70
2021/01/16 07:59:55;;;;;;;0.30;0.30;;;;;;;;;;5100029;28;20019;-71
2021/01/16 08:02:25;;;;;;;0.30;0.30;;;;;;;;;;5086872;28;20016;-71
2021/01/16 08:05:04;;;;;;;0.40;0.40;;;;;;;;;;5086005;28;20047;-71
2021/01/16 08:07:48;;;;;;;0.30;0.30;;;;;;;;;;5114470;28;20023;-72
2021/01/16 08:10:13;;;;;;;0.40;0.40;;;;;;;;;;5096129;28;20055;-71
2021/01/16 08:12:38;;;;;;;0.40;0.40;;;;;;;;;;5096353;28;20015;-71
2021/01/16 08:15:04;;;;;;;0.30;0.30;;;;;;;;;;5094053;28;20533;-71
2021/01/16 08:17:37;;;;;;;0.30;0.30;;;;;;;;;;5095764;28;20261;-72
2021/01/16 08:20:09;;;;;;;0.30;0.30;;;;;;;;;;5075860;28;20021;-71
2021/01/16 08:22:38;;;;;;;0.30;0.30;;;;;;;;;;5097623;28;20402;-72
2021/01/16 08:25:03;;;;;;;0.30;0.30;;;;;;;;;;5113705;28;20387;-72
2021/01/16 08:27:32;;;;;;;0.30;0.30;;;;;;;;;;5075791;28;20119;-72
2021/01/16 08:29:57;;;;;;;0.30;0.30;;;;;;;;;;5093505;28;20028;-71
2021/01/16 08:32:23;;;;;;;0.30;0.30;;;;;;;;;;5093671;28;20034;-71
2021/01/16 08:34:57;;;;;;;0.30;0.30;;;;;;;;;;5075153;28;20077;-71
2021/01/16 08:37:27;;;;;;;0.38;0.38;;;;;;;;;;5074494;28;20020;-73
2021/01/16 08:39:52;;;;;;;0.30;0.30;;;;;;;;;;5073975;28;20750;-75
2021/01/16 08:42:18;;;;;;;0.30;0.30;;;;;;;;;;5074666;28;20072;-74
2021/01/16 08:44:49;;;;;;;0.30;0.30;;;;;;;;;;5068956;28;20025;-75
2021/01/16 08:47:16;;;;;;;0.40;0.40;;;;;;;;;;5060288;28;20052;-74
2021/01/16 08:49:41;;;;;;;0.30;0.30;;;;;;;;;;5055381;28;20016;-73
2021/01/16 08:52:06;;;;;;;0.30;0.30;;;;;;;;;;5055825;28;20029;-76
2021/01/16 08:54:31;;;;;;;0.30;0.30;;;;;;;;;;5055732;28;20266;-76
2021/01/16 08:57:00;;;;;;;0.38;0.38;;;;;;;;;;5055900;28;20397;-76
2021/01/16 08:59:25;;;;;;;0.30;0.30;;;;;;;;;;5073960;28;20380;-76
2021/01/16 09:01:51;;;;;;;0.30;0.30;;;;;;;;;;5073428;28;20096;-76
2021/01/16 09:04:20;;;;;;;0.30;0.30;;;;;;;;;;5070672;28;20091;-76
2021/01/16 09:06:45;;;;;;;0.30;0.30;;;;;;;;;;5059038;28;20055;-76
2021/01/16 09:09:11;;;;;;;0.30;0.30;;;;;;;;;;5095908;28;20048;-76
2021/01/16 09:11:36;;;;;;;0.30;0.30;;;;;;;;;;5097661;28;20012;-76
2021/01/16 09:14:01;;;;;;;0.30;0.30;;;;;;;;;;5079512;28;20047;-75
2021/01/16 09:16:30;;;;;;;0.30;0.30;;;;;;;;;;5079133;28;20039;-74
2021/01/16 09:18:56;;;;;;;0.30;0.30;;;;;;;;;;5078964;28;20457;-75
2021/01/16 09:21:24;;;;;;;0.30;0.30;;;;;;;;;;5079165;28;20023;-75
2021/01/16 09:23:49;;;;;;;0.30;0.30;;;;;;;;;;5097490;28;20019;-75
2021/01/16 09:26:20;;;;;;;0.30;0.30;;;;;;;;;;5044029;28;20039;-75
2021/01/16 09:29:00;;;;;;;0.30;0.30;;;;;;;;;;5090767;28;20031;-74
2021/01/16 09:31:41;;;;;;;0.30;0.30;;;;;;;;;;5095229;28;20024;-75
2021/01/16 09:34:06;;;;;;;0.30;0.30;;;;;;;;;;5081197;28;20011;-74
2021/01/16 09:36:35;;;;;;;0.30;0.30;;;;;;;;;;5098882;28;20464;-74
2021/01/16 09:39:00;;;;;;;0.30;0.30;;;;;;;;;;5098805;28;20020;-73
2021/01/16 09:41:32;;;;;;;0.40;0.40;;;;;;;;;;5098757;28;20094;-74
2021/01/16 09:43:58;;;;;;;0.30;0.30;;;;;;;;;;5098695;28;20020;-73
2021/01/16 09:46:33;;;;;;;0.30;0.30;;;;;;;;;;5110584;28;20384;-73
2021/01/16 09:48:58;;;;;;;0.20;0.20;;;;;;;;;;5093791;28;20015;-73
2021/01/16 09:51:23;;;;;;;0.30;0.30;;;;;;;;;;5081716;28;20425;-73
2021/01/16 09:53:48;;;;;;;0.30;0.30;;;;;;;;;;5066153;28;20028;-73
2021/01/16 09:56:13;;;;;;;0.30;0.30;;;;;;;;;;5072121;28;20048;-72
2021/01/16 09:58:42;;;;;;;0.30;0.30;;;;;;;;;;5078297;28;20751;-72
2021/01/16 10:01:14;;;;;;;0.30;0.30;;;;;;;;;;5061600;28;20353;-73
2021/01/16 10:03:39;;;;;;;0.32;0.32;;;;;;;;;;5078057;28;20074;-72
2021/01/16 10:06:05;;;;;;;0.30;0.30;;;;;;;;;;5078349;28;20024;-73
2021/01/16 10:08:32;;;;;;;0.30;0.30;;;;;;;;;;5096156;28;20045;-72
2021/01/16 10:10:58;;;;;;;0.30;0.30;;;;;;;;;;5096180;28;20024;-71
2021/01/16 10:13:29;;;;;;;0.30;0.30;;;;;;;;;;5098269;28;20468;-71
2021/01/16 10:15:55;;;;;;;0.35;0.35;;;;;;;;;;5115995;28;20054;-72
2021/01/16 10:18:20;;;;;;;0.30;0.30;;;;;;;;;;5067283;28;20024;-72
2021/01/16 10:20:59;;;;;;;0.40;0.40;;;;;;;;;;5115339;28;20031;-71
2021/01/16 10:23:28;;;;;;;0.30;0.30;;;;;;;;;;5115976;28;20027;-73
2021/01/16 10:25:58;;;;;;;0.30;0.30;;;;;;;;;;5079996;28;20072;-73
2021/01/16 10:28:31;;;;;;;0.30;0.30;;;;;;;;;;5091280;28;20039;-73
2021/01/16 10:30:57;;;;;;;0.40;0.40;;;;;;;;;;5080526;28;20024;-75
2021/01/16 10:33:22;;;;;;;0.30;0.30;;;;;;;;;;5097837;28;20015;-74
2021/01/16 10:36:02;;;;;;;0.30;0.30;;;;;;;;;;5097460;28;20030;-75
2021/01/16 10:38:46;;;;;;;0.30;0.30;;;;;;;;;;5076135;28;20357;-73
2021/01/16 10:41:12;;;;;;;0.30;0.30;;;;;;;;;;5114700;28;20059;-74
2021/01/16 10:43:38;;;;;;;0.30;0.30;;;;;;;;;;5095469;28;20031;-74
2021/01/16 10:46:14;;;;;;;0.30;0.30;;;;;;;;;;5097260;28;20024;-73
2021/01/16 10:48:39;;;;;;;0.30;0.30;;;;;;;;;;5078747;28;20468;-72
2021/01/16 10:51:05;;;;;;;0.30;0.30;;;;;;;;;;5096852;28;20099;-73
2021/01/16 10:53:34;;;;;;;0.30;0.30;;;;;;;;;;5078390;28;20388;-73
2021/01/16 10:55:59;;;;;;;0.30;0.30;;;;;;;;;;5061714;28;20012;-74
2021/01/16 10:58:25;;;;;;;0.22;0.22;;;;;;;;;;5078414;28;20023;-73
2021/01/16 11:00:57;;;;;;;0.30;0.30;;;;;;;;;;5095531;28;20012;-73
2021/01/16 11:03:26;;;;;;;0.30;0.30;;;;;;;;;;5077181;28;20016;-73
2021/01/16 11:05:52;;;;;;;0.30;0.30;;;;;;;;;;5060125;28;20153;-73
2021/01/16 11:08:19;;;;;;;0.30;0.30;;;;;;;;;;5076808;28;20016;-74
2021/01/16 11:10:44;;;;;;;0.30;0.30;;;;;;;;;;5077464;28;20069;-73
2021/01/16 11:13:36;;;;;;;0.30;0.30;;;;;;;;;;5077073;28;20524;-74
2021/01/16 11:16:14;;;;;;;0.30;0.30;;;;;;;;;;5090950;28;20031;-73
2021/01/16 11:18:41;;;;;;;0.30;0.30;;;;;;;;;;5077393;28;20433;-74
2021/01/16 11:21:07;;;;;;;0.30;0.30;;;;;;;;;;5094795;28;20012;-74
2021/01/16 11:23:45;;;;;;;0.30;0.30;;;;;;;;;;5076925;28;20371;-74
2021/01/16 11:26:10;;;;;;;0.30;0.30;;;;;;;;;;5073146;28;20036;-74
2021/01/16 11:28:45;;;;;;;0.30;0.30;;;;;;;;;;5056605;28;20032;-74
2021/01/16 11:31:10;;;;;;;0.20;0.20;;;;;;;;;;5074178;28;20034;-74
2021/01/16 11:33:36;;;;;;;0.30;0.30;;;;;;;;;;5057391;28;20111;-74
2021/01/16 11:36:14;;;;;;;0.30;0.30;;;;;;;;;;5074086;28;20412;-73
2021/01/16 11:38:45;;;;;;;0.30;0.30;;;;;;;;;;5073334;28;20024;-73
2021/01/16 11:41:10;;;;;;;0.30;0.30;;;;;;;;;;5080762;28;20016;-73
2021/01/16 11:43:36;;;;;;;0.30;0.30;;;;;;;;;;5093277;28;20030;-74
2021/01/16 11:46:04;;;;;;;0.30;0.30;;;;;;;;;;5093671;28;20054;-72
2021/01/16 11:48:30;;;;;;;0.30;0.30;;;;;;;;;;5094329;28;20016;-73
2021/01/16 11:50:55;;;;;;;0.30;0.30;;;;;;;;;;5076060;28;20021;-73
2021/01/16 11:53:20;;;;;;;0.30;0.30;;;;;;;;;;5093892;28;20020;-73
2021/01/16 11:55:45;;;;;;;0.22;0.22;;;;;;;;;;5092834;28;20095;-74
2021/01/16 11:58:11;;;;;;;0.30;0.30;;;;;;;;;;5093149;28;20375;-74
2021/01/16 12:00:36;;;;;;;0.30;0.30;;;;;;;;;;5076551;28;20376;-73
2021/01/16 12:03:02;;;;;;;0.30;0.30;;;;;;;;;;5092999;28;20329;-74
2021/01/16 12:05:27;;;;;;;0.30;0.30;;;;;;;;;;5092792;28;20419;-74
2021/01/16 12:07:56;;;;;;;0.30;0.30;;;;;;;;;;5076064;28;20364;-73
2021/01/16 12:10:22;;;;;;;0.30;0.30;;;;;;;;;;5092719;28;20027;-73
2021/01/16 12:12:48;;;;;;;0.30;0.30;;;;;;;;;;5093868;28;20032;-72
2021/01/16 12:15:17;;;;;;;0.30;0.30;;;;;;;;;;5080218;28;20028;-72
2021/01/16 12:17:42;;;;;;;0.30;0.30;;;;;;;;;;5055386;28;20024;-72
2021/01/16 12:20:08;;;;;;;0.30;0.30;;;;;;;;;;5073140;28;20029;-72
2021/01/16 12:22:33;;;;;;;0.30;0.30;;;;;;;;;;5075448;28;20020;-73
2021/01/16 12:24:58;;;;;;;0.30;0.30;;;;;;;;;;5092975;28;20059;-72
2021/01/16 12:27:24;;;;;;;0.30;0.30;;;;;;;;;;5092482;28;20074;-73
2021/01/16 12:29:53;;;;;;;0.30;0.30;;;;;;;;;;5076586;28;20016;-73
2021/01/16 12:32:18;;;;;;;0.30;0.30;;;;;;;;;;5095014;28;20024;-72
2021/01/16 12:34:47;;;;;;;0.30;0.30;;;;;;;;;;5077424;28;20031;-73
2021/01/16 12:37:12;;;;;;;0.30;0.30;;;;;;;;;;5077604;28;20073;-73
2021/01/16 12:39:37;;;;;;;0.30;0.30;;;;;;;;;;5078245;28;20024;-73
2021/01/16 12:42:03;;;;;;;0.30;0.30;;;;;;;;;;5096199;28;20032;-73
2021/01/16 12:44:28;;;;;;;0.30;0.30;;;;;;;;;;5095162;28;20080;-74
2021/01/16 12:46:53;;;;;;;0.30;0.30;;;;;;;;;;5082150;28;20070;-74
2021/01/16 12:49:19;;;;;;;0.30;0.30;;;;;;;;;;5072893;28;20019;-74
2021/01/16 12:51:45;;;;;;;0.30;0.30;;;;;;;;;;5079689;28;20016;-73
2021/01/16 12:54:17;;;;;;;0.30;0.30;;;;;;;;;;5062180;28;20467;-73
2021/01/16 12:56:42;;;;;;;0.30;0.30;;;;;;;;;;5079131;28;20078;-73
2021/01/16 12:59:11;;;;;;;0.30;0.30;;;;;;;;;;5062543;28;20024;-73
2021/01/16 13:01:36;;;;;;;0.30;0.30;;;;;;;;;;5079023;28;20039;-74
2021/01/16 13:04:03;;;;;;;0.30;0.30;;;;;;;;;;5059404;28;20025;-74
2021/01/16 13:06:28;;;;;;;0.30;0.30;;;;;;;;;;5059304;28;20531;-74
2021/01/16 13:08:57;;;;;;;0.30;0.30;;;;;;;;;;5042295;28;20024;-74
2021/01/16 13:11:22;;;;;;;0.30;0.30;;;;;;;;;;5039021;28;20273;-74
2021/01/16 13:13:54;;;;;;;0.30;0.30;;;;;;;;;;5041852;28;20099;-74
2021/01/16 13:16:19;;;;;;;0.30;0.30;;;;;;;;;;5058336;28;20017;-74
2021/01/16 13:18:45;;;;;;;0.30;0.30;;;;;;;;;;5040611;28;20519;-74
2021/01/16 13:21:10;;;;;;;0.30;0.30;;;;;;;;;;5059817;28;20282;-74
2021/01/16 13:23:39;;;;;;;0.30;0.30;;;;;;;;;;5058464;28;20028;-73
2021/01/16 13:26:04;;;;;;;0.30;0.30;;;;;;;;;;5080422;28;20044;-74
2021/01/16 13:28:31;;;;;;;0.30;0.30;;;;;;;;;;5070609;28;20054;-73
2021/01/16 13:30:58;;;;;;;0.30;0.30;;;;;;;;;;5051974;28;20079;-73
2021/01/16 13:33:26;;;;;;;0.30;0.30;;;;;;;;;;5086860;28;20103;-74
2021/01/16 13:35:52;;;;;;;0.30;0.30;;;;;;;;;;5071084;28;20024;-73
2021/01/16 13:38:19;;;;;;;0.30;0.30;;;;;;;;;;5087678;28;20008;-74
2021/01/16 13:40:45;;;;;;;0.30;0.30;;;;;;;;;;5070493;28;20030;-73
2021/01/16 13:43:10;;;;;;;0.30;0.30;;;;;;;;;;5066832;28;20032;-73
2021/01/16 13:45:36;;;;;;;0.30;0.30;;;;;;;;;;5062870;28;20020;-73
2021/01/16 13:48:01;;;;;;;0.30;0.30;;;;;;;;;;5062873;28;20353;-73
2021/01/16 13:50:31;;;;;;;0.30;0.30;;;;;;;;;;5064561;28;20036;-73
2021/01/16 13:52:57;;;;;;;0.30;0.30;;;;;;;;;;5058984;28;20031;-73
2021/01/16 13:55:23;;;;;;;0.30;0.30;;;;;;;;;;5059679;28;20024;-73
2021/01/16 13:58:00;;;;;;;0.30;0.30;;;;;;;;;;5057837;28;20461;-73
2021/01/16 14:00:26;;;;;;;0.30;0.30;;;;;;;;;;5078957;28;20350;-73
2021/01/16 14:02:51;;;;;;;0.40;0.40;;;;;;;;;;5057240;28;20027;-73
2021/01/16 14:05:26;;;;;;;0.35;0.35;;;;;;;;;;5075111;28;20016;-73
2021/01/16 14:07:51;;;;;;;0.30;0.30;;;;;;;;;;5065354;28;20074;-73
2021/01/16 14:10:27;;;;;;;0.30;0.30;;;;;;;;;;5065667;28;20105;-74
2021/01/16 14:13:04;;;;;;;0.30;0.30;;;;;;;;;;5063823;28;20024;-74
2021/01/16 14:15:30;;;;;;;0.30;0.30;;;;;;;;;;5065722;28;20094;-73
2021/01/16 14:17:56;;;;;;;0.30;0.30;;;;;;;;;;5081997;28;20016;-73
2021/01/16 14:20:28;;;;;;;0.20;0.20;;;;;;;;;;5050529;28;20017;-74
2021/01/16 14:22:55;;;;;;;0.28;0.28;;;;;;;;;;5073126;28;20022;-74
2021/01/16 14:25:30;;;;;;;0.30;0.30;;;;;;;;;;5062596;28;20415;-73
2021/01/16 14:27:56;;;;;;;0.30;0.30;;;;;;;;;;5041369;28;20400;-72
2021/01/16 14:30:25;;;;;;;0.38;0.38;;;;;;;;;;5071448;28;20024;-72
2021/01/16 14:32:58;;;;;;;0.30;0.30;;;;;;;;;;5095481;28;20082;-73
2021/01/16 14:35:23;;;;;;;0.20;0.20;;;;;;;;;;5079922;28;20032;-73
2021/01/16 14:37:55;;;;;;;0.30;0.30;;;;;;;;;;5078315;28;20030;-72
2021/01/16 14:40:27;;;;;;;0.30;0.30;;;;;;;;;;5085484;28;20043;-73
2021/01/16 14:43:05;;;;;;;0.30;0.30;;;;;;;;;;5090013;28;20464;-73
2021/01/16 14:45:30;;;;;;;0.30;0.30;;;;;;;;;;5069997;28;20468;-71